Plentywood (PWD)
Plentywood, MT
Field Elevation: 2251
Lat: 48°47.32N  Long: 104°31.39W
CTAF/Unicom Freq: 122.8000
   
     For Weather-by-Phone, call 406-765-2149
Weather Advisories
2017-10-23   00:47 Z
Altimeter 29.61" Hg
Wind 270° @ 13 KT
Gusts 18 KT
Visibility 10 SM
Temperature 12° C (54° F)
Dewpoint 4° C (39° F)
Relative Humidity 57%
Density Altitude --
Condensation Altitude 6,100 feet
Wind and Runways
Indicated Runway = 26
Headwind = 13 kt
Crosswind = 2 kt
History
 
 
 
More Info
NOAA Forecast
 
Airport IQ 5010
(S59) Libby
(6S5) Ravalli County
 
about DigiWx
 
FAA Disclaimer: The data displayed is for advisory purposes only and is not to be used for flight planning or operations. For official data, please call 406-765-2149 to hear the current automated AWOS voice message.
  METAR PWD 230047Z AUTO 27013G18KT VIS 10 SM 12/04 A2961